This is the latest recevied weather packets stored in our database for station/object K0JSC-13. If no packets are shown the sender has not sent any weather packets the latest 10 day(s).
| Time | Temp. | Humidity | Pressure | Rain* | Wind** | Luminosity | Snow |
|---|---|---|---|---|---|---|---|
| 1777742823 | 17.78° C | 23% | 1002.3 hPa | 0 mm | - | - | - |
| 1777742283 | 17.22° C | 26% | 1002.5 hPa | 0 mm | - | - | - |
| 1777740843 | 16.67° C | 26% | 1002.8 hPa | 0 mm | - | - | - |
| 1777739223 | 15.56° C | 31% | 1003.2 hPa | 0 mm | - | - | - |
| 1777737243 | 14.44° C | 38% | 1003.3 hPa | 0 mm | - | - | - |
| 1777734003 | 12.22° C | 46% | 1004.2 hPa | 0 mm | - | - | - |
| 1777731483 | 10° C | 55% | 1004.4 hPa | 0 mm | - | - | - |
| 1777726443 | 6.11° C | 63% | 1004.5 hPa | 0 mm | - | - | - |
| 1777721763 | 5.56° C | 66% | 1004.1 hPa | 0 mm | - | - | - |
| 1777720683 | 5° C | 67% | 1004 hPa | 0 mm | - | - | - |
| 1777713483 | 6.67° C | 62% | 1003.5 hPa | 0 mm | - | - | - |
| 1777705203 | 7.78° C | 64% | 1003.6 hPa | 0 mm | - | - | - |
| 1777703764 | 7.22° C | 68% | 1003.6 hPa | 0 mm | - | - | - |
| 1777703223 | 6.67° C | 69% | 1003.5 hPa | 0 mm | - | - | - |
| 1777701739 | 6.67° C | 71% | 1003.3 hPa | 0 mm | - | - | - |
| 1777700703 | 7.22° C | 70% | 1003.1 hPa | 0 mm | - | - | - |
| 1777699623 | 7.22° C | 69% | 1003.1 hPa | 0 mm | - | - | - |
| 1777695483 | 7.78° C | 70% | 1003 hPa | 0 mm | - | - | - |
| 1777693503 | 7.78° C | 68% | 1003 hPa | 0 mm | - | - | - |
| 1777687204 | 12.78° C | 45% | 1001.7 hPa | 0 mm | - | - | - |
| 1777685223 | 13.33° C | 40% | 1001.4 hPa | 0 mm | - | - | - |
| 1777683244 | 13.89° C | 40% | 1000.9 hPa | 0 mm | - | - | - |
| 1777682297 | 14.44° C | 38% | 1001 hPa | 0 mm | - | - | - |
| 1777681218 | 14.44° C | 38% | 1000.9 hPa | 0 mm | - | - | - |
| 1777680543 | 14.44° C | 40% | 1000.9 hPa | 0 mm | - | - | - |
* Rain latest hour (hover to see other rain measurements)
** Current wind speed in m/s (hover to see current wind gust speed)